createdAt,value
2022-11-07T07:13:47.804Z,3.35
2022-11-07T07:16:14.594Z,3.45
2022-11-07T07:18:41.395Z,3.58
2022-11-07T07:21:10.896Z,3.35
2022-11-07T07:23:41.277Z,4.90
2022-11-07T07:26:13.283Z,3.60
2022-11-07T07:28:40.430Z,3.30
2022-11-07T07:31:31.277Z,3.80
2022-11-07T07:33:58.350Z,3.72
2022-11-07T07:36:25.591Z,3.60
2022-11-07T07:38:52.464Z,3.80
2022-11-07T07:41:19.648Z,3.40
2022-11-07T07:43:46.961Z,4.40
2022-11-07T07:46:19.329Z,3.58
2022-11-07T07:48:46.069Z,4.50
2022-11-07T07:51:12.795Z,4.10
2022-11-07T07:53:39.628Z,4.05
2022-11-07T07:56:07.376Z,3.78
2022-11-07T07:58:34.394Z,3.88
2022-11-07T08:01:01.348Z,3.90
2022-11-07T08:03:32.155Z,4.22
2022-11-07T08:06:06.908Z,3.75
2022-11-07T08:08:38.189Z,3.90
2022-11-07T08:11:08.681Z,3.58
2022-11-07T08:13:36.116Z,3.90
2022-11-07T08:16:04.927Z,4.07
2022-11-07T08:18:31.936Z,3.67
2022-11-07T08:20:58.729Z,3.53
2022-11-07T08:23:25.577Z,3.45
2022-11-07T08:28:22.034Z,3.95
2022-11-07T08:30:55.621Z,3.90
2022-11-07T08:33:22.426Z,3.70
2022-11-07T08:35:49.220Z,3.58
2022-11-07T08:40:42.646Z,3.03
2022-11-07T08:45:36.068Z,3.67
2022-11-07T08:48:02.923Z,3.58
2022-11-07T08:50:29.764Z,4.20
2022-11-07T08:55:29.696Z,3.97
2022-11-07T09:00:28.581Z,3.40
2022-11-07T09:05:42.233Z,3.53
2022-11-07T09:10:35.949Z,3.67
2022-11-07T09:13:02.848Z,3.42
2022-11-07T09:15:29.650Z,3.67
2022-11-07T09:20:23.199Z,3.60
2022-11-07T09:25:16.727Z,4.00
2022-11-07T09:30:10.788Z,4.70
2022-11-07T09:32:45.780Z,4.35
2022-11-07T09:35:13.657Z,4.78
2022-11-07T09:37:41.782Z,4.95
2022-11-07T09:40:29.217Z,4.88
2022-11-07T09:42:58.813Z,5.70
2022-11-07T09:45:25.648Z,6.28
2022-11-07T09:50:42.291Z,6.40
2022-11-07T09:53:22.171Z,5.63
2022-11-07T09:55:53.421Z,6.63
2022-11-07T09:58:36.743Z,5.82
2022-11-07T10:01:11.631Z,5.53
2022-11-07T10:03:43.140Z,5.57
2022-11-07T10:06:45.191Z,6.53
2022-11-07T10:12:17.409Z,6.38
2022-11-07T10:15:03.429Z,7.00
2022-11-07T10:17:43.890Z,6.55
2022-11-07T10:20:24.447Z,6.35
2022-11-07T10:23:21.078Z,6.28
2022-11-07T10:25:53.202Z,6.95
2022-11-07T10:28:21.039Z,7.32
2022-11-07T10:30:51.237Z,6.63
2022-11-07T10:33:27.022Z,6.32
2022-11-07T10:35:59.054Z,6.55
2022-11-07T10:38:28.335Z,6.22
2022-11-07T10:40:58.233Z,6.38
2022-11-07T10:43:38.869Z,6.07
2022-11-07T10:46:27.177Z,6.13
2022-11-07T10:48:59.680Z,6.18
2022-11-07T10:51:40.694Z,5.75
2022-11-07T10:54:21.909Z,11.60
2022-11-07T10:57:03.012Z,5.63
2022-11-07T10:59:36.245Z,5.85
2022-11-07T11:02:25.043Z,5.80
2022-11-07T11:04:55.198Z,6.00
2022-11-07T11:07:28.577Z,6.05
2022-11-07T11:09:57.906Z,6.22
2022-11-07T11:12:33.334Z,5.75
2022-11-07T11:15:12.304Z,6.28
2022-11-07T11:17:39.431Z,5.75
2022-11-07T11:20:23.379Z,5.88
2022-11-07T11:22:50.152Z,6.35
2022-11-07T11:28:01.910Z,6.10
2022-11-07T11:30:30.813Z,6.82
2022-11-07T11:33:05.377Z,5.95
2022-11-07T11:35:47.907Z,6.10
2022-11-07T11:38:22.888Z,6.78
2022-11-07T11:41:03.272Z,7.00
2022-11-07T11:43:55.383Z,6.88
2022-11-07T11:46:26.298Z,6.78
2022-11-07T11:49:05.801Z,7.20
2022-11-07T11:51:44.733Z,7.10
2022-11-07T11:54:14.261Z,6.72
2022-11-07T11:56:59.000Z,7.22
2022-11-07T11:59:50.323Z,7.35
2022-11-07T12:02:53.222Z,6.47
2022-11-07T12:05:38.107Z,7.13
2022-11-07T12:08:42.675Z,7.32
2022-11-07T12:11:46.928Z,6.93
2022-11-07T12:14:13.604Z,7.93
2022-11-07T12:16:49.058Z,8.02
2022-11-07T12:19:26.850Z,7.95
2022-11-07T12:22:25.568Z,8.13
2022-11-07T12:24:55.430Z,7.38
2022-11-07T12:27:27.184Z,7.75
2022-11-07T12:30:15.911Z,6.85
2022-11-07T12:33:10.864Z,7.35
2022-11-07T12:35:48.757Z,7.72
2022-11-07T12:38:49.973Z,7.57
2022-11-07T12:41:24.041Z,7.95
2022-11-07T12:44:15.155Z,7.90
2022-11-07T12:46:55.094Z,7.50
2022-11-07T12:49:36.615Z,7.65
2022-11-07T12:52:15.691Z,7.28
2022-11-07T12:54:47.043Z,8.18
2022-11-07T12:57:34.493Z,8.18
2022-11-07T13:00:15.669Z,7.82
2022-11-07T13:03:19.775Z,7.65
2022-11-07T13:05:52.857Z,8.60
2022-11-07T13:11:23.067Z,7.72
2022-11-07T13:14:24.005Z,8.00
2022-11-07T13:17:10.979Z,8.13
2022-11-07T13:19:43.558Z,7.28
2022-11-07T13:22:16.142Z,7.25
2022-11-07T13:25:06.172Z,7.90
2022-11-07T13:27:36.878Z,7.70
2022-11-07T13:30:15.330Z,8.40
2022-11-07T13:32:47.460Z,7.88
2022-11-07T13:35:23.211Z,8.05
2022-11-07T13:38:20.186Z,8.23
2022-11-07T13:40:53.841Z,8.85
2022-11-07T13:43:46.020Z,8.00
2022-11-07T13:46:29.933Z,8.55
2022-11-07T13:49:16.715Z,8.90
2022-11-07T13:51:45.627Z,8.10
2022-11-07T13:54:33.962Z,7.75
2022-11-07T13:57:08.613Z,8.07
2022-11-07T13:59:56.813Z,8.15
2022-11-07T14:02:25.284Z,8.80
2022-11-07T14:05:15.240Z,8.27
2022-11-07T14:07:46.431Z,7.55
2022-11-07T14:10:24.521Z,7.10
2022-11-07T14:12:57.410Z,6.72
2022-11-07T14:15:24.509Z,7.13
2022-11-07T14:17:51.456Z,7.53
2022-11-07T14:20:19.844Z,7.68
2022-11-07T14:23:11.955Z,7.68
2022-11-07T14:25:38.742Z,7.57
2022-11-07T14:28:16.595Z,7.45
2022-11-07T14:30:43.595Z,7.07
2022-11-07T14:33:19.249Z,7.97
2022-11-07T14:35:48.433Z,7.22
2022-11-07T14:38:25.523Z,7.40
2022-11-07T14:40:58.853Z,7.75
2022-11-07T14:43:27.751Z,7.15
2022-11-07T14:46:18.164Z,7.43
2022-11-07T14:48:47.434Z,7.40
2022-11-07T14:51:18.046Z,7.85
2022-11-07T14:53:55.708Z,8.35
2022-11-07T14:56:28.060Z,7.63
2022-11-07T14:58:55.248Z,7.30
2022-11-07T15:01:29.914Z,8.23
2022-11-07T15:04:00.865Z,7.43
2022-11-07T15:06:40.917Z,7.38
2022-11-07T15:09:08.533Z,7.97
2022-11-07T15:11:39.210Z,7.63
2022-11-07T15:14:22.049Z,7.30
2022-11-07T15:16:50.638Z,6.80
2022-11-07T15:19:20.722Z,7.30
2022-11-07T15:22:03.168Z,7.07
2022-11-07T15:24:56.279Z,6.30
2022-11-07T15:27:33.521Z,7.40
2022-11-07T15:30:01.974Z,6.93
2022-11-07T15:32:37.598Z,7.07
2022-11-07T15:35:42.603Z,7.28
2022-11-07T15:38:02.300Z,6.90
2022-11-07T15:40:29.708Z,6.80
2022-11-07T15:42:56.562Z,7.00
2022-11-07T15:45:23.888Z,7.03
2022-11-07T15:47:51.632Z,7.10
2022-11-07T15:50:21.726Z,6.90
2022-11-07T15:52:49.126Z,7.50
2022-11-07T15:55:21.309Z,6.88
2022-11-07T15:57:51.539Z,6.90
2022-11-07T16:00:20.839Z,6.95
2022-11-07T16:02:47.982Z,7.68
2022-11-07T16:05:15.309Z,8.60
2022-11-07T16:07:44.079Z,7.80
2022-11-07T16:10:22.289Z,8.02
2022-11-07T16:12:50.145Z,9.35
2022-11-07T16:15:18.866Z,8.77
2022-11-07T16:17:46.331Z,8.07
2022-11-07T16:20:21.972Z,8.90
2022-11-07T16:22:50.004Z,8.27
2022-11-07T16:25:22.225Z,8.73
2022-11-07T16:27:52.021Z,9.05
2022-11-07T16:30:19.592Z,8.18
2022-11-07T16:32:46.791Z,8.10
2022-11-07T16:35:13.663Z,8.45
2022-11-07T16:37:40.486Z,9.15
2022-11-07T16:40:12.102Z,9.38
2022-11-07T16:42:39.032Z,8.95
2022-11-07T16:45:06.326Z,8.77
2022-11-07T16:47:37.278Z,9.05
2022-11-07T16:50:05.000Z,7.95
2022-11-07T16:52:31.732Z,8.85
2022-11-07T16:54:59.155Z,8.90
2022-11-07T16:57:26.248Z,9.20
2022-11-07T16:59:53.110Z,8.68
2022-11-07T17:04:50.394Z,8.52
2022-11-07T17:07:18.507Z,9.48
2022-11-07T17:09:45.311Z,9.70
2022-11-07T17:14:40.126Z,8.95
2022-11-07T17:17:07.347Z,9.20
2022-11-07T17:19:34.863Z,9.90
2022-11-07T17:22:03.179Z,9.35
2022-11-07T17:24:30.786Z,9.38
2022-11-07T17:27:00.494Z,9.48
2022-11-07T17:29:27.247Z,9.85
2022-11-07T17:31:54.317Z,9.60
2022-11-07T17:34:21.511Z,9.05
2022-11-07T17:36:50.693Z,8.90
2022-11-07T17:39:20.512Z,9.30
2022-11-07T17:41:49.376Z,8.93
2022-11-07T17:44:17.777Z,9.77
2022-11-07T17:46:49.479Z,9.88
2022-11-07T17:49:18.653Z,9.88
2022-11-07T17:51:45.684Z,11.07
2022-11-07T17:54:14.116Z,11.70
2022-11-07T17:56:41.549Z,11.70
2022-11-07T17:59:12.324Z,11.30
2022-11-07T18:01:40.452Z,11.13
2022-11-07T18:04:10.143Z,11.10
2022-11-07T18:06:39.327Z,10.73
2022-11-07T18:09:08.119Z,11.23
2022-11-07T18:11:35.500Z,11.82
2022-11-07T18:14:02.644Z,11.10
2022-11-07T18:16:34.513Z,11.02
2022-11-07T18:19:02.174Z,11.23
2022-11-07T18:21:29.692Z,10.95
2022-11-07T18:23:57.009Z,11.90
2022-11-07T18:26:30.541Z,11.00
2022-11-07T18:29:01.777Z,10.32
2022-11-07T18:31:28.563Z,10.23
2022-11-07T18:34:04.494Z,10.45
2022-11-07T18:36:38.107Z,10.00
2022-11-07T18:39:07.068Z,9.95
2022-11-07T18:41:34.081Z,9.30
2022-11-07T18:44:04.801Z,10.45
2022-11-07T18:46:32.468Z,10.45
2022-11-07T18:48:59.804Z,10.18
2022-11-07T18:51:26.722Z,9.38
2022-11-07T18:56:21.717Z,9.77
2022-11-07T18:58:48.487Z,9.98
2022-11-07T19:01:22.213Z,9.85
2022-11-07T19:03:49.193Z,10.05
2022-11-07T19:08:47.317Z,10.50
2022-11-07T19:11:16.280Z,9.77
2022-11-07T19:13:45.562Z,9.88
2022-11-07T19:16:15.593Z,9.05
2022-11-07T19:18:48.943Z,9.38
2022-11-07T19:21:19.764Z,9.07
2022-11-07T19:23:47.995Z,10.07
2022-11-07T19:26:14.784Z,10.57
2022-11-07T19:28:41.716Z,11.15
2022-11-07T19:33:36.974Z,12.05
2022-11-07T19:36:07.312Z,11.82
2022-11-07T19:38:34.533Z,11.85
2022-11-07T19:41:05.383Z,11.23
2022-11-07T19:43:32.522Z,12.20
2022-11-07T19:45:59.696Z,12.32
2022-11-07T19:48:26.514Z,13.45
2022-11-07T19:50:53.294Z,12.48
2022-11-07T19:53:21.551Z,12.77
2022-11-07T19:55:48.347Z,13.00
2022-11-07T19:58:15.990Z,13.05
2022-11-07T20:00:43.199Z,13.32
2022-11-07T20:03:10.265Z,12.95
2022-11-07T20:05:39.537Z,13.48
2022-11-07T20:08:06.618Z,13.27
2022-11-07T20:10:33.873Z,13.18
2022-11-07T20:13:00.734Z,12.50
2022-11-07T20:17:54.201Z,12.07
2022-11-07T20:20:20.956Z,12.68
2022-11-07T20:22:47.767Z,12.95
2022-11-07T20:25:14.927Z,11.85
2022-11-07T20:27:42.017Z,11.15
2022-11-07T20:30:09.668Z,11.77
2022-11-07T20:32:36.638Z,12.57
2022-11-07T20:37:30.414Z,11.63
2022-11-07T20:39:57.199Z,13.02
2022-11-07T20:42:23.979Z,13.25
2022-11-07T20:44:51.148Z,12.18
2022-11-07T20:47:18.188Z,12.38
2022-11-07T20:49:44.938Z,12.48
2022-11-07T20:52:11.773Z,11.93
2022-11-07T20:54:38.517Z,13.02
2022-11-07T20:57:05.310Z,12.63
2022-11-07T20:59:32.539Z,14.50
2022-11-07T21:02:03.406Z,12.88
2022-11-07T21:04:44.562Z,12.52
2022-11-07T21:07:19.648Z,13.80
2022-11-07T21:09:46.884Z,13.05
2022-11-07T21:12:13.788Z,15.00
2022-11-07T21:14:42.118Z,13.90
2022-11-07T21:17:09.613Z,13.73
2022-11-07T21:19:36.420Z,13.15
2022-11-07T21:22:04.083Z,14.20
2022-11-07T21:24:31.600Z,13.05
2022-11-07T21:26:58.625Z,11.77
2022-11-07T21:29:29.570Z,12.65
2022-11-07T21:31:57.277Z,13.45
2022-11-07T21:34:24.366Z,14.27
2022-11-07T21:36:51.137Z,12.68
2022-11-07T21:39:18.003Z,12.98
2022-11-07T21:44:14.215Z,12.27
2022-11-07T21:46:40.991Z,13.02
2022-11-07T21:49:08.507Z,12.45
2022-11-07T21:51:35.633Z,12.63
2022-11-07T21:54:04.651Z,11.73
2022-11-07T21:56:37.509Z,11.98
2022-11-07T21:59:09.943Z,11.57
2022-11-07T22:01:38.444Z,10.38
2022-11-07T22:04:09.374Z,11.57
2022-11-07T22:06:39.399Z,11.32
2022-11-07T22:09:07.515Z,11.30
2022-11-07T22:11:34.460Z,11.77
2022-11-07T22:14:01.278Z,11.05
2022-11-07T22:16:28.130Z,11.38
2022-11-07T22:18:54.973Z,11.55
2022-11-07T22:21:23.002Z,10.70
2022-11-07T22:23:50.453Z,11.48
2022-11-07T22:26:22.212Z,9.98
2022-11-07T22:28:49.851Z,10.35
2022-11-07T22:31:28.483Z,10.85
2022-11-07T22:33:56.239Z,10.48
2022-11-07T22:36:23.900Z,10.00
2022-11-07T22:38:51.298Z,9.88
2022-11-07T22:41:23.005Z,11.10
2022-11-07T22:43:50.763Z,10.35
2022-11-07T22:46:23.909Z,10.00
2022-11-07T22:48:51.278Z,10.35
2022-11-07T22:51:28.331Z,10.18
2022-11-07T22:53:57.044Z,9.70
2022-11-07T22:56:24.349Z,10.05
2022-11-07T22:58:51.055Z,10.43
2022-11-07T23:01:29.864Z,10.60
2022-11-07T23:03:57.664Z,10.82
2022-11-07T23:06:25.765Z,10.40
2022-11-07T23:08:53.446Z,9.65
2022-11-07T23:11:45.250Z,9.65
2022-11-07T23:14:12.870Z,10.05
2022-11-07T23:16:43.896Z,9.27
2022-11-07T23:19:13.642Z,10.15
2022-11-07T23:21:41.006Z,9.60
2022-11-07T23:24:08.328Z,10.38
2022-11-07T23:26:35.824Z,10.02
2022-11-07T23:29:09.269Z,9.73
2022-11-07T23:31:39.129Z,10.35
2022-11-07T23:34:05.923Z,9.32
2022-11-07T23:36:32.855Z,10.15
2022-11-07T23:41:31.586Z,8.90
2022-11-07T23:46:44.163Z,9.07
2022-11-07T23:49:29.546Z,9.15
2022-11-07T23:51:56.298Z,8.82
2022-11-07T23:54:41.388Z,9.00
2022-11-07T23:57:08.198Z,8.48
2022-11-07T23:59:53.931Z,9.20
